createdAt,value
2023-05-22T00:01:44.599Z,11.30
2023-05-22T00:04:24.484Z,9.15
2023-05-22T00:06:58.978Z,6.70
2023-05-22T00:09:36.138Z,10.40
2023-05-22T00:12:10.758Z,7.07
2023-05-22T00:14:46.097Z,9.65
2023-05-22T00:17:20.715Z,7.88
2023-05-22T00:19:56.896Z,9.85
2023-05-22T00:22:33.234Z,7.55
2023-05-22T00:25:10.687Z,7.45
2023-05-22T00:27:45.090Z,8.25
2023-05-22T00:30:20.650Z,10.60
2023-05-22T00:32:58.149Z,7.78
2023-05-22T00:35:33.323Z,7.75
2023-05-22T00:38:09.025Z,7.82
2023-05-22T00:40:46.283Z,11.18
2023-05-22T00:43:20.750Z,5.93
2023-05-22T00:45:56.321Z,7.15
2023-05-22T00:48:30.963Z,5.90
2023-05-22T00:51:06.137Z,7.93
2023-05-22T00:53:41.084Z,9.70
2023-05-22T00:56:18.291Z,7.28
2023-05-22T00:58:52.941Z,8.15
2023-05-22T01:01:28.131Z,8.25
2023-05-22T01:04:03.589Z,7.82
2023-05-22T01:06:38.620Z,10.07
2023-05-22T01:09:13.032Z,6.93
2023-05-22T01:11:57.217Z,8.35
2023-05-22T01:14:35.249Z,7.35
2023-05-22T01:17:24.295Z,6.20
2023-05-22T01:20:02.916Z,6.25
2023-05-22T01:22:44.929Z,7.60
2023-05-22T01:25:28.269Z,6.45
2023-05-22T01:28:22.372Z,6.65
2023-05-22T01:31:04.350Z,5.95
2023-05-22T01:33:42.963Z,10.82
2023-05-22T01:36:21.742Z,8.02
2023-05-22T01:38:57.208Z,8.80
2023-05-22T01:41:32.888Z,7.05
2023-05-22T01:44:08.177Z,4.88
2023-05-22T01:46:45.013Z,7.07
2023-05-22T01:49:20.502Z,5.82
2023-05-22T01:51:57.446Z,6.13
2023-05-22T01:54:34.725Z,7.70
2023-05-22T01:57:11.059Z,12.63
2023-05-22T01:59:50.068Z,7.07
2023-05-22T02:02:27.105Z,7.80
2023-05-22T02:05:06.910Z,6.88
2023-05-22T02:07:43.502Z,6.43
2023-05-22T02:10:19.816Z,6.75
2023-05-22T02:12:54.301Z,4.68
2023-05-22T02:15:29.609Z,6.25
2023-05-22T02:18:07.707Z,6.03
2023-05-22T02:20:42.857Z,5.43
2023-05-22T02:23:17.421Z,7.18
2023-05-22T02:25:52.408Z,5.28
2023-05-22T02:28:27.005Z,5.15
2023-05-22T02:31:02.305Z,8.05
2023-05-22T02:33:38.590Z,6.50
2023-05-22T02:36:16.112Z,4.68
2023-05-22T02:38:54.413Z,6.85
2023-05-22T02:41:29.590Z,3.83
2023-05-22T02:44:04.178Z,6.93
2023-05-22T02:46:39.973Z,6.00
2023-05-22T02:49:16.741Z,6.65
2023-05-22T02:51:51.950Z,4.03
2023-05-22T02:54:26.464Z,6.28
2023-05-22T02:57:01.595Z,4.88
2023-05-22T02:59:37.522Z,6.82
2023-05-22T03:02:13.871Z,7.40
2023-05-22T03:04:50.392Z,8.75
2023-05-22T03:07:27.619Z,9.15
2023-05-22T03:10:02.293Z,7.32
2023-05-22T03:12:37.479Z,4.45
2023-05-22T03:15:12.552Z,6.55
2023-05-22T03:17:49.911Z,6.35
2023-05-22T03:20:26.488Z,4.70
2023-05-22T03:23:01.809Z,6.03
2023-05-22T03:25:36.451Z,2.85
2023-05-22T03:28:11.394Z,7.65
2023-05-22T03:30:48.328Z,4.93
2023-05-22T03:33:28.542Z,4.93
2023-05-22T03:36:05.263Z,2.47
2023-05-22T03:38:41.102Z,3.95
2023-05-22T03:41:16.015Z,2.95
2023-05-22T03:43:51.727Z,3.95
2023-05-22T03:46:26.808Z,6.63
2023-05-22T03:49:01.906Z,4.25
2023-05-22T03:51:38.280Z,3.00
2023-05-22T03:54:13.493Z,4.07
2023-05-22T03:56:49.585Z,4.15
2023-05-22T03:59:27.390Z,2.33
2023-05-22T04:02:03.078Z,2.92
2023-05-22T04:04:40.132Z,3.75
2023-05-22T04:07:16.586Z,4.03
2023-05-22T04:09:51.179Z,2.88
2023-05-22T04:12:25.652Z,4.03
2023-05-22T04:15:00.837Z,2.72
2023-05-22T04:17:44.063Z,3.42
2023-05-22T04:20:23.842Z,2.67
2023-05-22T04:23:04.679Z,2.70
2023-05-22T04:25:43.376Z,2.83
2023-05-22T04:28:19.719Z,4.70
2023-05-22T04:30:56.053Z,3.92
2023-05-22T04:33:31.954Z,4.57
2023-05-22T04:36:07.010Z,3.45
2023-05-22T04:38:43.597Z,3.90
2023-05-22T04:41:20.663Z,3.10
2023-05-22T04:43:58.612Z,3.38
2023-05-22T04:46:33.953Z,2.63
2023-05-22T04:49:09.177Z,3.45
2023-05-22T04:51:44.812Z,3.22
2023-05-22T04:54:21.105Z,5.07
2023-05-22T04:56:56.416Z,4.75
2023-05-22T04:59:31.044Z,4.25
2023-05-22T05:02:06.388Z,3.92
2023-05-22T05:04:40.831Z,6.72
2023-05-22T05:07:19.526Z,5.78
2023-05-22T05:09:56.740Z,5.93
2023-05-22T05:12:32.372Z,5.50
2023-05-22T05:15:07.958Z,4.53
2023-05-22T05:17:43.336Z,6.22
2023-05-22T05:20:18.703Z,3.70
2023-05-22T05:22:55.120Z,4.68
2023-05-22T05:25:31.682Z,5.60
2023-05-22T05:28:12.035Z,3.90
2023-05-22T05:30:48.337Z,5.30
2023-05-22T05:33:58.303Z,10.55
2023-05-22T05:36:37.463Z,9.55
2023-05-22T05:39:13.165Z,8.10
2023-05-22T05:41:50.543Z,15.43
2023-05-22T05:44:27.044Z,11.30
2023-05-22T05:47:02.727Z,16.83
2023-05-22T05:49:37.922Z,18.98
2023-05-22T05:52:13.885Z,21.02
2023-05-22T05:54:49.855Z,8.10
2023-05-22T05:57:29.271Z,12.40
2023-05-22T06:00:04.864Z,10.85
2023-05-22T06:02:50.764Z,8.93
2023-05-22T06:05:48.306Z,11.13
2023-05-22T06:08:46.083Z,10.68
2023-05-22T06:11:21.160Z,10.10
2023-05-22T06:14:03.221Z,9.98
2023-05-22T06:16:39.143Z,10.20
2023-05-22T06:19:13.829Z,10.75
2023-05-22T06:21:50.276Z,7.82
2023-05-22T06:24:27.780Z,7.45
2023-05-22T06:27:04.124Z,8.35
2023-05-22T06:29:40.778Z,8.10
2023-05-22T06:32:16.065Z,8.50
2023-05-22T06:34:52.121Z,7.22
2023-05-22T06:37:30.518Z,8.50
2023-05-22T06:40:05.226Z,5.95
2023-05-22T06:43:00.208Z,8.98
2023-05-22T06:45:50.037Z,7.85
2023-05-22T06:48:47.268Z,9.18
2023-05-22T06:51:28.570Z,7.18
2023-05-22T06:54:11.223Z,8.07
2023-05-22T06:56:45.762Z,8.15
2023-05-22T06:59:23.948Z,7.93
2023-05-22T07:02:15.466Z,9.02
2023-05-22T07:05:10.901Z,13.30
2023-05-22T07:08:03.328Z,9.90
2023-05-22T07:10:38.843Z,13.70
2023-05-22T07:13:14.409Z,11.38
2023-05-22T07:15:50.212Z,9.55
2023-05-22T07:18:27.097Z,9.90
2023-05-22T07:21:02.257Z,10.90
2023-05-22T07:23:37.307Z,8.38
2023-05-22T07:26:13.366Z,8.07
2023-05-22T07:28:56.306Z,10.52
2023-05-22T07:31:32.341Z,7.00
2023-05-22T07:34:09.759Z,9.32
2023-05-22T07:36:44.870Z,10.52
2023-05-22T07:39:19.272Z,9.48
2023-05-22T07:41:56.950Z,11.82
2023-05-22T07:44:33.110Z,11.57
2023-05-22T07:47:08.521Z,7.88
2023-05-22T07:49:45.585Z,7.18
2023-05-22T07:52:21.326Z,11.00
2023-05-22T07:54:57.838Z,11.63
2023-05-22T07:57:37.816Z,10.20
2023-05-22T08:00:21.821Z,9.07
2023-05-22T08:02:57.888Z,6.60
2023-05-22T08:05:35.302Z,10.73
2023-05-22T08:08:09.966Z,7.93
2023-05-22T08:10:58.238Z,9.43
2023-05-22T08:13:39.507Z,9.77
2023-05-22T08:16:14.879Z,10.57
2023-05-22T08:18:49.441Z,7.97
2023-05-22T08:21:26.204Z,9.38
2023-05-22T08:24:02.285Z,9.02
2023-05-22T08:26:37.529Z,10.07
2023-05-22T08:29:12.291Z,8.77
2023-05-22T08:31:46.844Z,9.23
2023-05-22T08:34:22.624Z,7.38
2023-05-22T08:37:00.538Z,8.32
2023-05-22T08:39:35.062Z,6.45
2023-05-22T08:42:09.963Z,9.73
2023-05-22T08:44:45.481Z,12.43
2023-05-22T08:47:20.718Z,20.00
2023-05-22T08:49:56.478Z,18.48
2023-05-22T08:52:35.403Z,18.65
2023-05-22T08:55:11.113Z,15.13
2023-05-22T08:57:47.386Z,15.95
2023-05-22T09:00:22.394Z,13.80
2023-05-22T09:02:57.703Z,9.48
2023-05-22T09:05:33.171Z,15.65
2023-05-22T09:08:19.595Z,12.55
2023-05-22T09:10:56.694Z,9.57
2023-05-22T09:13:31.739Z,7.70
2023-05-22T09:16:13.811Z,10.15
2023-05-22T09:18:49.022Z,8.82
2023-05-22T09:24:07.193Z,10.18
2023-05-22T09:26:42.452Z,8.05
2023-05-22T09:29:17.194Z,7.00
2023-05-22T09:31:52.768Z,9.25
2023-05-22T09:34:34.561Z,10.10
2023-05-22T09:37:11.131Z,10.70
2023-05-22T09:39:49.054Z,9.52
2023-05-22T09:42:23.808Z,9.68
2023-05-22T09:44:58.243Z,8.50
2023-05-22T09:47:33.636Z,10.23
2023-05-22T09:50:11.588Z,10.10
2023-05-22T09:52:49.055Z,8.95
2023-05-22T09:55:26.351Z,10.18
2023-05-22T09:58:01.962Z,9.77
2023-05-22T10:00:39.153Z,8.50
2023-05-22T10:03:17.596Z,8.65
2023-05-22T10:05:53.881Z,11.23
2023-05-22T10:08:30.918Z,9.38
2023-05-22T10:11:08.296Z,9.32
2023-05-22T10:13:44.111Z,11.43
2023-05-22T10:16:20.930Z,9.35
2023-05-22T10:18:56.985Z,10.85
2023-05-22T10:21:33.720Z,12.57
2023-05-22T10:24:09.357Z,9.30
2023-05-22T10:26:46.097Z,9.05
2023-05-22T10:29:23.872Z,9.95
2023-05-22T10:32:03.433Z,10.48
2023-05-22T10:34:55.108Z,13.77
2023-05-22T10:37:36.587Z,14.50
2023-05-22T10:40:14.501Z,10.90
2023-05-22T10:42:51.347Z,11.85
2023-05-22T10:45:25.819Z,12.43
2023-05-22T10:48:10.380Z,12.05
2023-05-22T10:50:46.602Z,11.88
2023-05-22T10:53:25.656Z,11.27
2023-05-22T10:56:00.796Z,13.38
2023-05-22T10:58:39.080Z,8.00
2023-05-22T11:01:18.654Z,12.43
2023-05-22T11:03:59.740Z,10.82
2023-05-22T11:06:42.870Z,11.70
2023-05-22T11:09:24.549Z,11.95
2023-05-22T11:12:13.790Z,11.43
2023-05-22T11:14:53.044Z,13.75
2023-05-22T11:17:28.364Z,13.55
2023-05-22T11:20:07.162Z,14.05
2023-05-22T11:22:44.604Z,12.00
2023-05-22T11:25:21.684Z,12.48
2023-05-22T11:27:56.481Z,15.30
2023-05-22T11:30:33.561Z,14.00
2023-05-22T11:33:08.774Z,14.02
2023-05-22T11:35:44.579Z,14.30
2023-05-22T11:38:20.056Z,11.40
2023-05-22T11:40:56.996Z,14.32
2023-05-22T11:43:36.545Z,13.27
2023-05-22T11:46:14.410Z,12.35
2023-05-22T11:48:49.247Z,10.57
2023-05-22T11:51:25.100Z,13.48
2023-05-22T11:54:00.698Z,13.40
2023-05-22T11:56:35.582Z,12.23
2023-05-22T11:59:10.280Z,11.88
2023-05-22T12:01:46.781Z,13.50
2023-05-22T12:04:22.414Z,12.40
2023-05-22T12:06:58.837Z,15.55
2023-05-22T12:09:34.275Z,14.43
2023-05-22T12:12:08.932Z,13.68
2023-05-22T12:14:44.038Z,14.50
2023-05-22T12:17:21.975Z,14.52
2023-05-22T12:19:58.450Z,14.23
2023-05-22T12:22:33.624Z,12.60
2023-05-22T12:25:18.861Z,18.15
2023-05-22T12:27:54.222Z,16.17
2023-05-22T12:30:28.754Z,14.57
2023-05-22T12:33:05.250Z,11.95
2023-05-22T12:35:40.613Z,12.13
2023-05-22T12:38:16.164Z,12.35
2023-05-22T12:40:51.072Z,15.68
2023-05-22T12:43:26.755Z,14.23
2023-05-22T12:46:02.846Z,15.43
2023-05-22T12:48:40.330Z,21.08
2023-05-22T12:51:15.581Z,14.80
2023-05-22T12:53:50.713Z,16.60
2023-05-22T12:56:25.646Z,17.25
2023-05-22T12:59:00.498Z,16.55
2023-05-22T13:01:35.208Z,16.17
2023-05-22T13:04:15.359Z,14.75
2023-05-22T13:06:50.614Z,17.30
2023-05-22T13:09:25.523Z,14.98
2023-05-22T13:12:01.590Z,13.02
2023-05-22T13:14:36.079Z,14.63
2023-05-22T13:17:11.485Z,14.20
2023-05-22T13:19:48.512Z,14.95
2023-05-22T13:22:23.470Z,14.70
2023-05-22T13:24:58.078Z,18.10
2023-05-22T13:27:34.010Z,14.95
2023-05-22T13:30:09.321Z,13.38
2023-05-22T13:32:44.103Z,16.60
2023-05-22T13:35:20.605Z,13.18
2023-05-22T13:37:59.759Z,15.02
2023-05-22T13:40:34.909Z,14.23
2023-05-22T13:43:09.596Z,14.50
2023-05-22T13:45:44.060Z,14.07
2023-05-22T13:48:20.325Z,12.68
2023-05-22T13:50:57.230Z,14.18
2023-05-22T13:53:31.871Z,16.05
2023-05-22T13:56:06.427Z,15.02
2023-05-22T13:58:42.075Z,15.32
2023-05-22T14:01:17.441Z,12.95
2023-05-22T14:03:52.514Z,14.95
2023-05-22T14:06:29.002Z,16.27
2023-05-22T14:09:04.186Z,14.30
2023-05-22T14:11:39.134Z,15.35
2023-05-22T14:14:13.897Z,14.02
2023-05-22T14:16:48.368Z,12.27
2023-05-22T14:19:23.820Z,16.90
2023-05-22T14:22:00.718Z,14.02
2023-05-22T14:24:35.455Z,14.55
2023-05-22T14:27:10.159Z,16.58
2023-05-22T14:29:45.278Z,15.23
2023-05-22T14:32:20.260Z,13.77
2023-05-22T14:34:56.145Z,14.70
2023-05-22T14:37:32.424Z,14.88
2023-05-22T14:40:08.927Z,12.70
2023-05-22T14:42:43.972Z,14.70
2023-05-22T14:45:18.697Z,12.70
2023-05-22T14:47:53.357Z,16.67
2023-05-22T14:50:29.272Z,14.25
2023-05-22T14:53:06.064Z,14.60
2023-05-22T14:55:41.048Z,12.07
2023-05-22T14:58:15.939Z,13.55
2023-05-22T15:00:51.041Z,12.93
2023-05-22T15:03:26.051Z,14.23
2023-05-22T15:06:00.690Z,16.38
2023-05-22T15:08:38.214Z,15.50
2023-05-22T15:11:13.205Z,16.05
2023-05-22T15:13:48.282Z,19.08
2023-05-22T15:16:23.953Z,14.63
2023-05-22T15:18:58.897Z,15.48
2023-05-22T15:21:34.265Z,13.38
2023-05-22T15:24:11.199Z,12.73
2023-05-22T15:26:45.786Z,13.15
2023-05-22T15:29:20.365Z,13.23
2023-05-22T15:31:55.573Z,16.25
2023-05-22T15:34:30.629Z,13.50
2023-05-22T15:37:05.255Z,16.95
2023-05-22T15:39:41.507Z,12.90
2023-05-22T15:42:16.705Z,17.48
2023-05-22T15:44:51.639Z,17.45
2023-05-22T15:47:26.279Z,14.23
2023-05-22T15:50:00.673Z,13.88
2023-05-22T15:52:35.910Z,13.65
2023-05-22T15:55:13.670Z,13.50
2023-05-22T15:57:48.389Z,16.65
2023-05-22T16:00:23.178Z,18.60
2023-05-22T16:02:58.496Z,16.02
2023-05-22T16:05:36.510Z,16.08
2023-05-22T16:08:11.785Z,13.35
2023-05-22T16:10:48.867Z,16.20
2023-05-22T16:13:24.173Z,13.52
2023-05-22T16:15:59.742Z,15.02
2023-05-22T16:18:34.357Z,12.90
2023-05-22T16:21:08.949Z,16.15
2023-05-22T16:23:44.246Z,14.05
2023-05-22T16:26:21.154Z,17.20
2023-05-22T16:28:56.954Z,15.02
2023-05-22T16:31:31.709Z,13.65
2023-05-22T16:34:06.996Z,13.88
2023-05-22T16:36:43.177Z,13.10
2023-05-22T16:39:18.438Z,15.20
2023-05-22T16:41:54.961Z,13.48
2023-05-22T16:44:30.156Z,11.10
2023-05-22T16:47:05.431Z,13.93
2023-05-22T16:49:39.952Z,13.27
2023-05-22T16:52:14.569Z,9.73
2023-05-22T16:54:49.939Z,14.90
2023-05-22T16:57:26.552Z,14.63
2023-05-22T17:00:01.578Z,17.17
2023-05-22T17:02:36.476Z,13.00
2023-05-22T17:05:12.026Z,18.50
2023-05-22T17:07:47.531Z,11.40
2023-05-22T17:10:23.707Z,14.30
2023-05-22T17:13:00.552Z,13.32
2023-05-22T17:15:35.900Z,13.50
2023-05-22T17:18:11.195Z,11.95
2023-05-22T17:20:46.084Z,14.20
2023-05-22T17:23:20.499Z,10.45
2023-05-22T17:25:56.835Z,13.30
2023-05-22T17:28:34.117Z,11.63
2023-05-22T17:31:08.816Z,17.00
2023-05-22T17:33:43.244Z,12.90
2023-05-22T17:36:18.244Z,11.85
2023-05-22T17:38:53.129Z,11.63
2023-05-22T17:41:28.047Z,14.02
2023-05-22T17:44:07.691Z,12.77
2023-05-22T17:46:42.884Z,13.27
2023-05-22T17:49:17.688Z,10.05
2023-05-22T17:51:52.431Z,13.73
2023-05-22T17:54:26.858Z,12.52
2023-05-22T17:57:02.091Z,14.07
2023-05-22T17:59:40.270Z,12.75
2023-05-22T18:02:15.262Z,12.65
2023-05-22T18:04:50.201Z,15.57
2023-05-22T18:07:25.359Z,11.82
2023-05-22T18:10:00.254Z,10.00
2023-05-22T18:12:37.347Z,11.02
2023-05-22T18:15:15.729Z,11.85
2023-05-22T18:17:50.798Z,12.25
2023-05-22T18:20:25.774Z,10.65
2023-05-22T18:23:01.350Z,14.52
2023-05-22T18:25:35.927Z,11.35
2023-05-22T18:28:11.621Z,15.40
2023-05-22T18:30:48.743Z,10.38
2023-05-22T18:33:23.294Z,13.25
2023-05-22T18:35:58.305Z,11.05
2023-05-22T18:38:33.535Z,10.70
2023-05-22T18:41:08.388Z,11.70
2023-05-22T18:43:43.107Z,10.25
2023-05-22T18:46:19.567Z,11.07
2023-05-22T18:48:54.920Z,11.90
2023-05-22T18:51:30.888Z,12.40
2023-05-22T18:54:05.525Z,9.93
2023-05-22T18:56:40.607Z,11.70
2023-05-22T18:59:15.773Z,9.10
2023-05-22T19:01:52.706Z,10.98
2023-05-22T19:04:27.549Z,11.52
2023-05-22T19:07:02.033Z,9.13
2023-05-22T19:09:37.122Z,8.95
2023-05-22T19:12:13.172Z,11.02
2023-05-22T19:14:49.883Z,9.85
2023-05-22T19:17:26.286Z,8.48
2023-05-22T19:20:01.524Z,9.82
2023-05-22T19:22:36.609Z,11.55
2023-05-22T19:25:11.497Z,8.48
2023-05-22T19:27:46.383Z,9.45
2023-05-22T19:30:23.489Z,15.60
2023-05-22T19:33:00.459Z,10.32
2023-05-22T19:35:35.446Z,10.15
2023-05-22T19:38:10.000Z,8.48
2023-05-22T19:40:45.393Z,9.13
2023-05-22T19:43:20.669Z,9.10
2023-05-22T19:45:55.793Z,9.80
2023-05-22T19:48:35.025Z,9.43
2023-05-22T19:51:10.763Z,7.47
2023-05-22T19:53:47.751Z,7.65
2023-05-22T19:56:22.864Z,7.35
2023-05-22T19:58:57.283Z,9.05
2023-05-22T20:01:32.553Z,10.07
2023-05-22T20:04:09.606Z,8.15
2023-05-22T20:06:46.839Z,9.00
2023-05-22T20:09:21.655Z,8.27
2023-05-22T20:11:58.294Z,11.82
2023-05-22T20:14:33.020Z,9.38
2023-05-22T20:17:07.717Z,9.75
2023-05-22T20:19:46.565Z,7.25
2023-05-22T20:22:21.864Z,9.63
2023-05-22T20:24:56.898Z,7.82
2023-05-22T20:27:31.512Z,11.45
2023-05-22T20:30:05.962Z,12.77
2023-05-22T20:32:42.044Z,9.85
2023-05-22T20:35:20.331Z,9.68
2023-05-22T20:37:57.271Z,8.50
2023-05-22T20:40:31.841Z,9.50
2023-05-22T20:43:07.310Z,9.15
2023-05-22T20:45:42.628Z,6.57
2023-05-22T20:48:18.281Z,8.85
2023-05-22T20:50:54.641Z,7.57
2023-05-22T20:53:29.825Z,8.27
2023-05-22T20:56:04.801Z,12.40
2023-05-22T20:58:39.283Z,11.55
2023-05-22T21:01:15.515Z,9.20
2023-05-22T21:03:51.551Z,11.13
2023-05-22T21:06:28.608Z,7.80
2023-05-22T21:09:03.317Z,7.53
2023-05-22T21:11:37.723Z,8.27
2023-05-22T21:14:13.101Z,13.38
2023-05-22T21:16:48.246Z,9.95
2023-05-22T21:19:23.034Z,9.88
2023-05-22T21:21:59.437Z,8.73
2023-05-22T21:24:34.670Z,8.25
2023-05-22T21:27:09.550Z,11.75
2023-05-22T21:29:44.213Z,15.90
2023-05-22T21:32:18.816Z,9.63
2023-05-22T21:34:54.109Z,11.25
2023-05-22T21:37:30.972Z,10.15
2023-05-22T21:40:05.562Z,8.55
2023-05-22T21:42:46.364Z,11.88
2023-05-22T21:45:23.708Z,13.57
2023-05-22T21:47:59.232Z,10.00
2023-05-22T21:50:34.547Z,12.80
2023-05-22T21:53:10.872Z,11.70
2023-05-22T21:55:45.726Z,9.73
2023-05-22T21:58:20.713Z,10.65
2023-05-22T22:00:55.673Z,9.85
2023-05-22T22:03:30.309Z,11.75
2023-05-22T22:06:05.511Z,14.32
2023-05-22T22:08:42.353Z,12.30
2023-05-22T22:11:16.956Z,12.82
2023-05-22T22:13:51.492Z,11.43
2023-05-22T22:16:26.711Z,13.38
2023-05-22T22:19:03.050Z,11.35
2023-05-22T22:21:38.081Z,9.13
2023-05-22T22:24:14.882Z,10.88
2023-05-22T22:26:50.849Z,9.82
2023-05-22T22:29:25.733Z,11.80
2023-05-22T22:32:00.316Z,9.80
2023-05-22T22:34:34.832Z,8.70
2023-05-22T22:37:09.764Z,9.30
2023-05-22T22:39:46.539Z,10.52
2023-05-22T22:42:21.222Z,9.05
2023-05-22T22:44:56.030Z,12.85
2023-05-22T22:47:30.627Z,11.50
2023-05-22T22:50:05.584Z,8.90
2023-05-22T22:52:42.066Z,13.32
2023-05-22T22:55:18.745Z,10.40
2023-05-22T22:57:53.669Z,8.90
2023-05-22T23:00:28.678Z,9.57
2023-05-22T23:03:04.067Z,13.10
2023-05-22T23:05:40.015Z,10.43
2023-05-22T23:08:18.239Z,13.82
2023-05-22T23:10:55.357Z,13.65
2023-05-22T23:13:30.063Z,9.85
2023-05-22T23:16:06.021Z,11.90
2023-05-22T23:18:40.738Z,11.73
2023-05-22T23:21:15.720Z,9.20
2023-05-22T23:23:50.507Z,14.75
2023-05-22T23:26:28.067Z,35.38
2023-05-22T23:29:06.867Z,25.05
2023-05-22T23:31:42.196Z,15.50
2023-05-22T23:34:16.903Z,14.60
2023-05-22T23:36:52.052Z,9.70
2023-05-22T23:39:28.372Z,14.75
2023-05-22T23:42:05.517Z,12.50
2023-05-22T23:44:43.411Z,11.88
2023-05-22T23:47:18.507Z,11.15
2023-05-22T23:49:53.585Z,9.90
2023-05-22T23:52:28.546Z,11.63
2023-05-22T23:55:03.106Z,10.38
2023-05-22T23:57:39.407Z,13.05
